Time;durP1;ratioP1;P1;durP2;ratioP2;P2;SDS_P1;SDS_P2;PMS_P1;PMS_P2;Temp;Humidity;BMP_temperature;BMP_pressure;BME280_temperature;BME280_humidity;BME280_pressure;Samples;Min_cycle;Max_cycle;Signal;HPM_P1;HPM_P2
2021/08/04 00:01:17;;;;;;;3.88;2.60;;;;;;;;;;5014891;28;20479;-67
2021/08/04 00:03:44;;;;;;;4.30;2.88;;;;;;;;;;5021750;23;20066;-65
2021/08/04 00:06:10;;;;;;;4.00;2.60;;;;;;;;;;5015115;28;20076;-66
2021/08/04 00:08:36;;;;;;;7.90;3.42;;;;;;;;;;5015014;28;20016;-67
2021/08/04 00:11:01;;;;;;;2.97;2.67;;;;;;;;;;5014915;28;20018;-66
2021/08/04 00:13:27;;;;;;;4.20;2.95;;;;;;;;;;5014842;28;20377;-67
2021/08/04 00:15:53;;;;;;;4.00;2.85;;;;;;;;;;5014645;28;20173;-66
2021/08/04 00:18:19;;;;;;;5.32;3.13;;;;;;;;;;5013984;28;20079;-67
2021/08/04 00:20:45;;;;;;;3.72;2.70;;;;;;;;;;5014611;28;20025;-67
2021/08/04 00:23:10;;;;;;;6.45;3.28;;;;;;;;;;5014579;28;20080;-67
2021/08/04 00:25:37;;;;;;;3.58;2.60;;;;;;;;;;5014481;28;20018;-68
2021/08/04 00:28:03;;;;;;;4.68;3.47;;;;;;;;;;5014549;28;20022;-65
2021/08/04 00:30:29;;;;;;;4.20;2.92;;;;;;;;;;5014356;28;20025;-66
2021/08/04 00:32:55;;;;;;;5.00;2.97;;;;;;;;;;5014840;28;20025;-67
2021/08/04 00:35:22;;;;;;;3.47;3.00;;;;;;;;;;5014143;28;20018;-66
2021/08/04 00:37:48;;;;;;;3.75;3.28;;;;;;;;;;5014380;28;20155;-66
2021/08/04 00:40:13;;;;;;;6.50;3.03;;;;;;;;;;5014282;28;20363;-67
2021/08/04 00:42:39;;;;;;;6.10;3.03;;;;;;;;;;5014102;28;20033;-65
2021/08/04 00:45:05;;;;;;;4.93;3.22;;;;;;;;;;5014253;28;20018;-66
2021/08/04 00:47:31;;;;;;;7.68;3.63;;;;;;;;;;5014367;28;20088;-66
2021/08/04 00:49:57;;;;;;;4.22;2.78;;;;;;;;;;5014275;28;20545;-65
2021/08/04 00:52:23;;;;;;;4.45;3.13;;;;;;;;;;5014641;28;20098;-65
2021/08/04 00:54:48;;;;;;;3.45;2.58;;;;;;;;;;5014121;28;20022;-67
2021/08/04 00:57:14;;;;;;;6.07;3.35;;;;;;;;;;5013925;28;20386;-66
2021/08/04 00:59:40;;;;;;;5.53;3.40;;;;;;;;;;5014067;28;20427;-68
2021/08/04 01:04:57;;;;;;;4.47;3.47;;;;;;;;;;5450069;23;19968;-66
2021/08/04 01:07:38;;;;;;;6.07;3.63;;;;;;;;;;4994059;28;20522;-66
2021/08/04 01:10:13;;;;;;;7.43;3.50;;;;;;;;;;4993962;28;20014;-67
2021/08/04 01:12:45;;;;;;;6.90;4.00;;;;;;;;;;4994109;28;20014;-66
2021/08/04 01:15:12;;;;;;;5.60;3.17;;;;;;;;;;4992703;28;20019;-66
2021/08/04 01:17:40;;;;;;;4.70;3.83;;;;;;;;;;4993873;28;20018;-67
2021/08/04 01:20:13;;;;;;;5.33;4.00;;;;;;;;;;4993837;28;20394;-66
2021/08/04 01:22:47;;;;;;;4.15;3.33;;;;;;;;;;4992749;28;20745;-65
2021/08/04 01:25:17;;;;;;;4.35;3.40;;;;;;;;;;4993545;28;20072;-66
2021/08/04 01:27:48;;;;;;;4.18;3.35;;;;;;;;;;4993725;28;20029;-66
2021/08/04 01:30:15;;;;;;;5.50;3.63;;;;;;;;;;4993906;28;20029;-66
2021/08/04 01:32:42;;;;;;;5.07;3.67;;;;;;;;;;4993791;28;20022;-67
2021/08/04 01:35:09;;;;;;;6.50;3.90;;;;;;;;;;4993726;28;20069;-66
2021/08/04 01:37:35;;;;;;;3.92;3.25;;;;;;;;;;4993378;28;20080;-65
2021/08/04 01:40:03;;;;;;;8.05;4.20;;;;;;;;;;4993821;28;20487;-66
2021/08/04 01:42:32;;;;;;;5.07;3.55;;;;;;;;;;4993332;28;20088;-66
2021/08/04 01:44:59;;;;;;;6.55;4.15;;;;;;;;;;4993401;28;20018;-66
2021/08/04 01:47:25;;;;;;;7.00;4.10;;;;;;;;;;4993295;28;20026;-66
2021/08/04 01:49:51;;;;;;;8.45;3.97;;;;;;;;;;4993607;28;20360;-66
2021/08/04 01:52:17;;;;;;;6.63;3.60;;;;;;;;;;4993425;28;20081;-66
2021/08/04 01:54:43;;;;;;;6.40;3.28;;;;;;;;;;4993679;28;20033;-67
2021/08/04 01:57:10;;;;;;;4.70;3.28;;;;;;;;;;4993328;28;20109;-66
2021/08/04 01:59:35;;;;;;;3.85;3.30;;;;;;;;;;4993185;28;20029;-66
2021/08/04 02:04:41;;;;;;;5.20;3.08;;;;;;;;;;5081198;23;20050;-67
2021/08/04 02:07:10;;;;;;;7.15;3.70;;;;;;;;;;5012991;28;20113;-67
2021/08/04 02:09:46;;;;;;;8.43;3.50;;;;;;;;;;5013008;28;20030;-66
2021/08/04 02:12:13;;;;;;;5.00;3.60;;;;;;;;;;5012919;28;20084;-67
2021/08/04 02:14:44;;;;;;;5.07;3.60;;;;;;;;;;5012861;28;20017;-66
2021/08/04 02:17:20;;;;;;;5.72;3.55;;;;;;;;;;5013162;28;20076;-67
2021/08/04 02:19:54;;;;;;;5.43;3.53;;;;;;;;;;5012784;28;20085;-65
2021/08/04 02:22:25;;;;;;;7.90;3.67;;;;;;;;;;5012869;28;20034;-65
2021/08/04 02:24:55;;;;;;;6.85;4.30;;;;;;;;;;5012800;28;20021;-65
2021/08/04 02:27:22;;;;;;;8.63;4.10;;;;;;;;;;5012850;28;20014;-67
2021/08/04 02:29:48;;;;;;;6.57;3.95;;;;;;;;;;5012760;28;20022;-66
2021/08/04 02:32:14;;;;;;;9.85;4.25;;;;;;;;;;5012517;28;20030;-66
2021/08/04 02:34:40;;;;;;;11.75;4.70;;;;;;;;;;5013064;28;20364;-66
2021/08/04 02:37:06;;;;;;;7.70;5.35;;;;;;;;;;5012653;28;20033;-66
2021/08/04 02:39:31;;;;;;;9.25;4.60;;;;;;;;;;5012548;28;20104;-67
2021/08/04 02:41:58;;;;;;;11.25;5.05;;;;;;;;;;5014987;28;20454;-66
2021/08/04 02:44:24;;;;;;;13.13;5.00;;;;;;;;;;5015529;28;20374;-66
2021/08/04 02:46:51;;;;;;;10.95;5.57;;;;;;;;;;5016377;28;20014;-68
2021/08/04 02:49:18;;;;;;;11.18;5.47;;;;;;;;;;5016487;28;20028;-66
2021/08/04 02:51:44;;;;;;;13.15;4.93;;;;;;;;;;5016419;28;20490;-66
2021/08/04 02:54:12;;;;;;;9.43;4.25;;;;;;;;;;5016373;28;20032;-66
2021/08/04 02:56:38;;;;;;;11.63;5.03;;;;;;;;;;5016477;28;20394;-67
2021/08/04 02:59:04;;;;;;;9.70;5.07;;;;;;;;;;5016376;28;20014;-67
2021/08/04 03:01:30;;;;;;;7.60;4.43;;;;;;;;;;5016070;28;20513;-66
2021/08/04 03:03:56;;;;;;;11.38;4.93;;;;;;;;;;5148189;23;20050;-67
2021/08/04 03:06:22;;;;;;;11.07;4.80;;;;;;;;;;4996409;28;20034;-67
2021/08/04 03:08:49;;;;;;;11.23;4.47;;;;;;;;;;4996200;28;20032;-66
2021/08/04 03:11:15;;;;;;;7.93;3.85;;;;;;;;;;4996265;28;20038;-67
2021/08/04 03:13:40;;;;;;;9.60;4.38;;;;;;;;;;4996309;28;20497;-68
2021/08/04 03:16:06;;;;;;;7.25;4.45;;;;;;;;;;4994926;28;20109;-66
2021/08/04 03:18:32;;;;;;;7.03;3.88;;;;;;;;;;4994645;28;20057;-67
2021/08/04 03:20:58;;;;;;;11.63;3.63;;;;;;;;;;4995040;28;20122;-67
2021/08/04 03:23:24;;;;;;;8.05;4.05;;;;;;;;;;4994498;28;20499;-67
2021/08/04 03:25:50;;;;;;;6.45;4.60;;;;;;;;;;4995234;28;20109;-67
2021/08/04 03:28:16;;;;;;;23.23;5.68;;;;;;;;;;4996615;28;20438;-65
2021/08/04 03:30:42;;;;;;;9.15;4.22;;;;;;;;;;4996481;28;20033;-67
2021/08/04 03:33:08;;;;;;;11.70;4.28;;;;;;;;;;4995952;28;20014;-67
2021/08/04 03:35:34;;;;;;;5.95;4.18;;;;;;;;;;4995678;28;20391;-68
2021/08/04 03:38:00;;;;;;;6.20;4.05;;;;;;;;;;4996299;28;20019;-67
2021/08/04 03:40:25;;;;;;;5.70;4.32;;;;;;;;;;4995817;28;20022;-66
2021/08/04 03:42:51;;;;;;;16.50;4.75;;;;;;;;;;4995867;28;20076;-65
2021/08/04 03:45:17;;;;;;;13.70;5.53;;;;;;;;;;4995656;28;20105;-65
2021/08/04 03:47:43;;;;;;;10.50;4.40;;;;;;;;;;4995702;28;20105;-65
2021/08/04 03:50:10;;;;;;;7.40;4.00;;;;;;;;;;4995713;28;20023;-66
2021/08/04 03:52:35;;;;;;;5.78;3.78;;;;;;;;;;4994714;28;20022;-67
2021/08/04 03:55:00;;;;;;;12.02;4.38;;;;;;;;;;4995631;28;20029;-66
2021/08/04 03:57:27;;;;;;;5.93;3.92;;;;;;;;;;4995717;28;20033;-67
2021/08/04 03:59:53;;;;;;;7.82;4.30;;;;;;;;;;4995555;28;20105;-65
2021/08/04 04:04:54;;;;;;;6.78;4.13;;;;;;;;;;5083671;23;20057;-66
2021/08/04 04:07:20;;;;;;;6.82;4.03;;;;;;;;;;5034679;28;20076;-65
2021/08/04 04:09:46;;;;;;;6.00;4.18;;;;;;;;;;5034677;28;20413;-67
2021/08/04 04:12:12;;;;;;;5.88;3.55;;;;;;;;;;5034692;28;20087;-66
2021/08/04 04:14:38;;;;;;;5.22;3.80;;;;;;;;;;5034835;28;20057;-65
2021/08/04 04:17:03;;;;;;;6.88;3.70;;;;;;;;;;5034715;28;20023;-66
2021/08/04 04:19:29;;;;;;;9.27;4.57;;;;;;;;;;5034159;28;20022;-66
2021/08/04 04:21:54;;;;;;;6.07;4.32;;;;;;;;;;5034276;28;20119;-66
2021/08/04 04:24:20;;;;;;;9.48;4.00;;;;;;;;;;5034356;28;20075;-67
2021/08/04 04:26:46;;;;;;;7.07;4.38;;;;;;;;;;5034308;28;20029;-66
2021/08/04 04:29:12;;;;;;;7.75;4.65;;;;;;;;;;5034127;28;20045;-66
2021/08/04 04:31:38;;;;;;;8.73;4.78;;;;;;;;;;5034207;28;20104;-65
2021/08/04 04:34:04;;;;;;;10.27;3.95;;;;;;;;;;5034335;28;20116;-65
2021/08/04 04:36:30;;;;;;;6.05;4.15;;;;;;;;;;5034109;28;20025;-67
2021/08/04 04:38:56;;;;;;;13.23;3.75;;;;;;;;;;5033983;28;20009;-65
2021/08/04 04:41:22;;;;;;;7.28;3.65;;;;;;;;;;5033567;28;20326;-66
2021/08/04 04:43:48;;;;;;;5.22;3.38;;;;;;;;;;5033933;28;20014;-65
2021/08/04 04:46:13;;;;;;;6.22;4.07;;;;;;;;;;5033859;28;20374;-65
2021/08/04 04:48:39;;;;;;;7.28;4.20;;;;;;;;;;5033900;28;20018;-65
2021/08/04 04:51:05;;;;;;;7.70;3.97;;;;;;;;;;5033829;28;20013;-66
2021/08/04 04:53:31;;;;;;;4.38;3.53;;;;;;;;;;5033394;28;20006;-65
2021/08/04 04:55:57;;;;;;;8.95;3.75;;;;;;;;;;5033747;28;20032;-66
2021/08/04 04:58:23;;;;;;;8.43;3.65;;;;;;;;;;5033411;28;20063;-65
2021/08/04 05:00:49;;;;;;;11.55;4.03;;;;;;;;;;5033689;28;20116;-64
2021/08/04 05:03:15;;;;;;;14.13;4.55;;;;;;;;;;5033151;28;20565;-65
2021/08/04 05:05:41;;;;;;;5.93;4.00;;;;;;;;;;5033797;28;20020;-65
2021/08/04 05:08:07;;;;;;;7.25;4.45;;;;;;;;;;5034037;28;20013;-66
2021/08/04 05:10:34;;;;;;;8.77;3.67;;;;;;;;;;5034070;28;20025;-63
2021/08/04 05:13:00;;;;;;;7.38;4.22;;;;;;;;;;5034136;28;20045;-65
2021/08/04 05:15:26;;;;;;;7.95;5.05;;;;;;;;;;5034146;28;20067;-64
2021/08/04 05:17:52;;;;;;;6.15;4.38;;;;;;;;;;5033847;28;20018;-66
2021/08/04 05:20:21;;;;;;;10.77;4.35;;;;;;;;;;5033790;28;20021;-67
2021/08/04 05:22:47;;;;;;;8.50;4.30;;;;;;;;;;5034099;28;20037;-65
2021/08/04 05:25:13;;;;;;;9.70;4.15;;;;;;;;;;5033896;28;20014;-64
2021/08/04 05:27:39;;;;;;;16.15;4.50;;;;;;;;;;5033710;28;20405;-65
2021/08/04 05:30:06;;;;;;;5.32;4.20;;;;;;;;;;5033693;28;20025;-66
2021/08/04 05:32:32;;;;;;;13.40;3.60;;;;;;;;;;5033725;28;20496;-67
2021/08/04 05:34:58;;;;;;;9.75;4.65;;;;;;;;;;5016017;28;20025;-65
2021/08/04 05:37:24;;;;;;;9.57;4.30;;;;;;;;;;5033936;28;20018;-65
2021/08/04 05:39:50;;;;;;;6.47;3.63;;;;;;;;;;5033554;28;20020;-66
2021/08/04 05:42:16;;;;;;;8.48;4.15;;;;;;;;;;5033537;28;20496;-66
2021/08/04 05:44:41;;;;;;;14.13;4.18;;;;;;;;;;5032848;28;20052;-65
2021/08/04 05:47:10;;;;;;;12.18;3.97;;;;;;;;;;5032923;28;20021;-67
2021/08/04 05:49:36;;;;;;;5.22;3.53;;;;;;;;;;5032575;28;20013;-66
2021/08/04 05:52:01;;;;;;;11.93;3.65;;;;;;;;;;5032138;28;20014;-67
2021/08/04 05:54:28;;;;;;;7.72;4.18;;;;;;;;;;5032605;28;20068;-69
2021/08/04 05:56:53;;;;;;;6.75;3.22;;;;;;;;;;5031303;28;20017;-66
2021/08/04 05:59:19;;;;;;;11.75;3.78;;;;;;;;;;5032688;28;20052;-68
2021/08/04 06:01:44;;;;;;;7.90;3.42;;;;;;;;;;5032559;28;20132;-67
2021/08/04 06:04:11;;;;;;;6.57;3.25;;;;;;;;;;5013770;28;20064;-66
2021/08/04 06:06:36;;;;;;;6.65;2.92;;;;;;;;;;5012695;28;20437;-66
2021/08/04 06:09:02;;;;;;;8.55;3.30;;;;;;;;;;5030673;28;20021;-67
2021/08/04 06:11:29;;;;;;;8.40;3.33;;;;;;;;;;5030865;28;20025;-66
2021/08/04 06:13:55;;;;;;;4.97;3.17;;;;;;;;;;5029944;28;20017;-67
2021/08/04 06:16:21;;;;;;;5.32;3.33;;;;;;;;;;5030788;28;20028;-68
2021/08/04 06:18:46;;;;;;;6.75;3.00;;;;;;;;;;5031401;28;20029;-67
2021/08/04 06:21:12;;;;;;;6.22;3.15;;;;;;;;;;5031331;28;20021;-67
2021/08/04 06:23:38;;;;;;;6.55;3.38;;;;;;;;;;5032027;28;20036;-66
2021/08/04 06:26:03;;;;;;;7.78;3.10;;;;;;;;;;5030731;28;20013;-67
2021/08/04 06:28:29;;;;;;;6.70;2.65;;;;;;;;;;5031835;28;20079;-66
2021/08/04 06:30:55;;;;;;;7.00;2.63;;;;;;;;;;5032331;28;20018;-67
2021/08/04 06:33:21;;;;;;;11.48;2.85;;;;;;;;;;5031651;28;20014;-66
2021/08/04 06:35:46;;;;;;;7.63;2.70;;;;;;;;;;5031756;28;20139;-67
2021/08/04 06:38:11;;;;;;;10.95;3.10;;;;;;;;;;5031597;28;20018;-68
2021/08/04 06:40:37;;;;;;;7.75;2.75;;;;;;;;;;5031310;28;20037;-67
2021/08/04 06:43:04;;;;;;;6.32;3.45;;;;;;;;;;5031772;28;20036;-66
2021/08/04 06:45:30;;;;;;;7.63;2.75;;;;;;;;;;5031636;28;20017;-67
2021/08/04 06:47:55;;;;;;;9.60;2.90;;;;;;;;;;5031443;28;20013;-68
2021/08/04 06:50:21;;;;;;;6.78;2.85;;;;;;;;;;5031328;28;20022;-65
2021/08/04 06:52:47;;;;;;;6.53;2.88;;;;;;;;;;5031992;28;20029;-65
2021/08/04 06:55:12;;;;;;;8.65;2.70;;;;;;;;;;5031560;28;20021;-67
2021/08/04 06:57:38;;;;;;;6.63;3.30;;;;;;;;;;5030717;28;20017;-69
2021/08/04 07:00:03;;;;;;;6.82;2.85;;;;;;;;;;5028909;28;20026;-68
2021/08/04 07:02:30;;;;;;;6.57;2.90;;;;;;;;;;5030357;28;20107;-68
2021/08/04 07:04:55;;;;;;;8.32;2.85;;;;;;;;;;5037404;28;20045;-68
2021/08/04 07:07:21;;;;;;;4.63;2.67;;;;;;;;;;5030561;28;20032;-68
2021/08/04 07:09:46;;;;;;;6.63;3.10;;;;;;;;;;5032616;28;20025;-69
2021/08/04 07:12:12;;;;;;;6.35;2.92;;;;;;;;;;5033623;28;20021;-68
2021/08/04 07:14:40;;;;;;;8.88;3.10;;;;;;;;;;5014099;28;20547;-68
2021/08/04 07:17:06;;;;;;;6.45;3.40;;;;;;;;;;5031549;28;20422;-68
2021/08/04 07:19:31;;;;;;;6.93;2.90;;;;;;;;;;5031081;28;20079;-68
2021/08/04 07:21:57;;;;;;;7.93;3.33;;;;;;;;;;5031012;28;20030;-68
2021/08/04 07:24:22;;;;;;;7.57;3.13;;;;;;;;;;5030312;28;20053;-64
2021/08/04 07:26:48;;;;;;;8.25;3.03;;;;;;;;;;5030441;28;20079;-65
2021/08/04 07:29:13;;;;;;;4.63;2.80;;;;;;;;;;5033956;28;20129;-65
2021/08/04 07:31:40;;;;;;;7.45;3.38;;;;;;;;;;5033315;28;20028;-65
2021/08/04 07:34:06;;;;;;;6.22;2.65;;;;;;;;;;5033674;28;20023;-65
2021/08/04 07:36:31;;;;;;;8.57;3.10;;;;;;;;;;5032497;28;20075;-67
2021/08/04 07:38:57;;;;;;;4.63;2.80;;;;;;;;;;5033133;28;20017;-65
2021/08/04 07:41:22;;;;;;;8.40;2.92;;;;;;;;;;5033063;28;20033;-65
2021/08/04 07:43:49;;;;;;;5.75;2.70;;;;;;;;;;5033250;28;20136;-65
2021/08/04 07:46:16;;;;;;;4.82;2.30;;;;;;;;;;5033672;28;20029;-64
2021/08/04 07:48:42;;;;;;;5.38;2.72;;;;;;;;;;5029632;28;20029;-64
2021/08/04 07:51:07;;;;;;;4.65;2.28;;;;;;;;;;5034026;28;20056;-64
2021/08/04 07:53:34;;;;;;;3.45;2.38;;;;;;;;;;5032961;28;20017;-64
2021/08/04 07:55:59;;;;;;;4.32;2.35;;;;;;;;;;5032935;28;20086;-64
2021/08/04 07:58:25;;;;;;;3.53;2.50;;;;;;;;;;5033982;28;20025;-64
2021/08/04 08:00:51;;;;;;;5.72;2.55;;;;;;;;;;5033790;28;20022;-64
2021/08/04 08:03:16;;;;;;;4.40;2.30;;;;;;;;;;5033648;28;20045;-65
2021/08/04 08:05:42;;;;;;;6.25;2.70;;;;;;;;;;5033992;28;20017;-65
2021/08/04 08:08:08;;;;;;;3.05;2.30;;;;;;;;;;5036656;28;20108;-65
2021/08/04 08:10:36;;;;;;;5.45;2.55;;;;;;;;;;5036295;28;20022;-65
2021/08/04 08:13:02;;;;;;;4.35;2.65;;;;;;;;;;5034589;28;20032;-64
2021/08/04 08:15:27;;;;;;;5.80;2.42;;;;;;;;;;5034095;28;20021;-66
2021/08/04 08:17:52;;;;;;;4.78;2.03;;;;;;;;;;5033920;28;20017;-63
2021/08/04 08:20:19;;;;;;;3.00;2.00;;;;;;;;;;5038140;28;20052;-66
2021/08/04 08:22:46;;;;;;;5.57;2.90;;;;;;;;;;5045765;28;20052;-64
2021/08/04 08:25:14;;;;;;;4.38;2.40;;;;;;;;;;5044181;28;20014;-64
2021/08/04 08:27:41;;;;;;;6.97;2.67;;;;;;;;;;5033564;28;20053;-73
2021/08/04 08:30:07;;;;;;;16.67;3.28;;;;;;;;;;5033664;28;20021;-73
2021/08/04 08:32:33;;;;;;;21.23;4.50;;;;;;;;;;5015011;28;20018;-75
2021/08/04 08:34:59;;;;;;;12.93;3.55;;;;;;;;;;5033504;28;20022;-72
2021/08/04 08:37:25;;;;;;;19.95;4.00;;;;;;;;;;5033309;28;20039;-72
2021/08/04 08:39:51;;;;;;;14.15;3.22;;;;;;;;;;5032789;28;20025;-71
2021/08/04 08:42:17;;;;;;;19.40;4.15;;;;;;;;;;5033167;28;20025;-72
2021/08/04 08:44:43;;;;;;;13.85;3.50;;;;;;;;;;5033279;28;20017;-71
2021/08/04 08:47:09;;;;;;;5.22;2.17;;;;;;;;;;5034161;28;20592;-71
2021/08/04 08:49:35;;;;;;;17.48;4.22;;;;;;;;;;5031696;28;20028;-69
2021/08/04 08:52:02;;;;;;;20.83;4.78;;;;;;;;;;5033039;28;20131;-70
2021/08/04 08:54:27;;;;;;;22.70;4.90;;;;;;;;;;5032946;28;20017;-71
2021/08/04 08:56:54;;;;;;;7.40;2.35;;;;;;;;;;5032910;28;20028;-72
2021/08/04 08:59:21;;;;;;;12.90;3.10;;;;;;;;;;5032858;28;20466;-71
2021/08/04 09:01:46;;;;;;;11.07;3.58;;;;;;;;;;5033502;28;20498;-74
2021/08/04 09:04:16;;;;;;;10.95;3.00;;;;;;;;;;5032537;28;20132;-71
2021/08/04 09:06:54;;;;;;;8.60;2.88;;;;;;;;;;5033160;28;20028;-71
2021/08/04 09:09:21;;;;;;;15.55;3.72;;;;;;;;;;5032948;28;20022;-74
2021/08/04 09:11:48;;;;;;;8.75;2.97;;;;;;;;;;5033164;28;20028;-73
2021/08/04 09:14:14;;;;;;;3.92;2.20;;;;;;;;;;5032839;28;20087;-71
2021/08/04 09:16:40;;;;;;;7.45;2.72;;;;;;;;;;5033122;28;20017;-72
2021/08/04 09:19:21;;;;;;;13.23;3.53;;;;;;;;;;5032915;28;20347;-73
2021/08/04 09:22:05;;;;;;;16.00;3.42;;;;;;;;;;5032637;28;20025;-72
2021/08/04 09:24:49;;;;;;;7.43;2.70;;;;;;;;;;5032894;28;20377;-72
2021/08/04 09:27:15;;;;;;;12.35;2.80;;;;;;;;;;5032701;28;20055;-71
2021/08/04 09:29:55;;;;;;;17.73;3.42;;;;;;;;;;5032686;28;20247;-73
2021/08/04 09:32:22;;;;;;;12.52;3.10;;;;;;;;;;5015264;28;20219;-73
2021/08/04 09:34:48;;;;;;;16.30;3.88;;;;;;;;;;5015087;28;20021;-72
2021/08/04 09:37:19;;;;;;;12.85;3.35;;;;;;;;;;5032467;28;20028;-73
2021/08/04 09:39:45;;;;;;;24.55;4.53;;;;;;;;;;5032173;28;20025;-74
2021/08/04 09:42:13;;;;;;;13.48;3.63;;;;;;;;;;5032279;28;20116;-72
2021/08/04 09:44:54;;;;;;;6.45;2.53;;;;;;;;;;5032841;28;20016;-70
2021/08/04 09:47:20;;;;;;;14.77;3.28;;;;;;;;;;5032757;28;20032;-69
2021/08/04 09:49:56;;;;;;;14.80;3.45;;;;;;;;;;5032349;28;20486;-70
2021/08/04 09:52:22;;;;;;;11.43;3.45;;;;;;;;;;5031675;28;20030;-74
2021/08/04 09:54:48;;;;;;;7.72;2.78;;;;;;;;;;5032542;28;20010;-72
2021/08/04 09:57:13;;;;;;;17.38;3.53;;;;;;;;;;5032792;28;20013;-72
2021/08/04 09:59:39;;;;;;;13.82;3.40;;;;;;;;;;5032330;28;20377;-72
2021/08/04 10:02:06;;;;;;;10.38;3.33;;;;;;;;;;5032114;28;20087;-71
2021/08/04 10:04:32;;;;;;;7.03;2.60;;;;;;;;;;5011284;28;20054;-71
2021/08/04 10:07:11;;;;;;;8.20;3.00;;;;;;;;;;5012298;28;20374;-70
2021/08/04 10:09:37;;;;;;;8.80;2.67;;;;;;;;;;5012389;28;20028;-71
2021/08/04 10:12:04;;;;;;;8.52;3.10;;;;;;;;;;5012448;28;20018;-70
2021/08/04 10:14:31;;;;;;;7.38;2.53;;;;;;;;;;5029915;28;20032;-68
2021/08/04 10:16:57;;;;;;;7.60;2.30;;;;;;;;;;5031893;28;20021;-68
2021/08/04 10:19:24;;;;;;;6.78;2.60;;;;;;;;;;5031877;28;20005;-71
2021/08/04 10:21:52;;;;;;;4.25;1.98;;;;;;;;;;5031996;28;20032;-70
2021/08/04 10:24:17;;;;;;;6.23;2.30;;;;;;;;;;5032104;28;20014;-70
2021/08/04 10:26:43;;;;;;;4.63;2.53;;;;;;;;;;5032195;28;20045;-70
2021/08/04 10:29:10;;;;;;;8.63;2.53;;;;;;;;;;5031926;28;20135;-69
2021/08/04 10:31:37;;;;;;;6.93;2.88;;;;;;;;;;5031793;28;20112;-70
2021/08/04 10:34:04;;;;;;;8.60;2.80;;;;;;;;;;5031703;28;20021;-70
2021/08/04 10:36:31;;;;;;;9.30;2.80;;;;;;;;;;5014521;28;20591;-71
2021/08/04 10:38:58;;;;;;;5.90;2.38;;;;;;;;;;5032067;28;20018;-71
2021/08/04 10:41:25;;;;;;;6.78;2.45;;;;;;;;;;5031669;28;20021;-68
2021/08/04 10:43:53;;;;;;;6.88;2.40;;;;;;;;;;5032553;28;20021;-72
2021/08/04 10:46:29;;;;;;;10.23;2.90;;;;;;;;;;5032009;28;20482;-72
2021/08/04 10:49:13;;;;;;;7.95;2.55;;;;;;;;;;5031816;28;20075;-72
2021/08/04 10:51:45;;;;;;;7.05;2.60;;;;;;;;;;5014424;28;20010;-72
2021/08/04 10:54:15;;;;;;;8.40;2.92;;;;;;;;;;5031718;28;20021;-71
2021/08/04 10:56:56;;;;;;;4.30;2.15;;;;;;;;;;5031900;28;20079;-69
2021/08/04 10:59:24;;;;;;;11.68;2.78;;;;;;;;;;5031505;28;20025;-71
2021/08/04 11:01:53;;;;;;;5.75;2.40;;;;;;;;;;5031923;28;20036;-70
2021/08/04 11:04:43;;;;;;;13.68;3.28;;;;;;;;;;5036629;28;20501;-71
2021/08/04 11:07:16;;;;;;;8.98;2.53;;;;;;;;;;5034621;28;20041;-71
2021/08/04 11:09:56;;;;;;;14.57;3.17;;;;;;;;;;5034293;28;20049;-72
2021/08/04 11:12:22;;;;;;;9.77;2.88;;;;;;;;;;5017321;28;20579;-71
2021/08/04 11:14:49;;;;;;;8.82;2.72;;;;;;;;;;5035147;28;20093;-71
2021/08/04 11:17:29;;;;;;;12.75;3.08;;;;;;;;;;5017513;28;20079;-68
2021/08/04 11:20:06;;;;;;;8.75;2.20;;;;;;;;;;5017194;28;20021;-69
2021/08/04 11:22:41;;;;;;;8.02;2.38;;;;;;;;;;5034551;28;20033;-68
2021/08/04 11:25:09;;;;;;;6.65;1.90;;;;;;;;;;5035377;28;20018;-68
2021/08/04 11:27:37;;;;;;;12.40;3.33;;;;;;;;;;5034730;28;20374;-68
2021/08/04 11:30:02;;;;;;;6.93;2.50;;;;;;;;;;5034635;28;20025;-68
2021/08/04 11:32:29;;;;;;;5.25;2.10;;;;;;;;;;5016921;28;20043;-67
2021/08/04 11:34:55;;;;;;;12.68;2.28;;;;;;;;;;5034822;28;20024;-67
2021/08/04 11:37:21;;;;;;;13.27;2.85;;;;;;;;;;5034654;28;20010;-67
2021/08/04 11:39:53;;;;;;;8.68;2.25;;;;;;;;;;5034696;28;20024;-67
2021/08/04 11:42:19;;;;;;;4.72;1.80;;;;;;;;;;5034460;28;20486;-67
2021/08/04 11:44:44;;;;;;;6.25;1.80;;;;;;;;;;5034716;28;20025;-69
2021/08/04 11:47:10;;;;;;;6.85;2.00;;;;;;;;;;5034097;28;20079;-67
2021/08/04 11:49:37;;;;;;;8.18;2.42;;;;;;;;;;5034360;28;20075;-67
2021/08/04 11:52:07;;;;;;;7.15;1.98;;;;;;;;;;5034658;28;20052;-68
2021/08/04 11:54:36;;;;;;;9.75;2.15;;;;;;;;;;5033305;28;20048;-68
2021/08/04 11:57:03;;;;;;;6.97;1.88;;;;;;;;;;5031998;28;20021;-69
2021/08/04 11:59:29;;;;;;;13.10;2.58;;;;;;;;;;5034051;28;20028;-67
2021/08/04 12:02:02;;;;;;;9.70;2.53;;;;;;;;;;5033710;28;20513;-68
2021/08/04 12:04:31;;;;;;;8.80;2.08;;;;;;;;;;5034225;28;20046;-68
2021/08/04 12:06:58;;;;;;;3.30;1.38;;;;;;;;;;5034441;28;20079;-68
2021/08/04 12:09:37;;;;;;;11.73;2.50;;;;;;;;;;5034226;28;20074;-68
2021/08/04 12:12:04;;;;;;;7.35;2.63;;;;;;;;;;5034235;28;20017;-69
2021/08/04 12:14:32;;;;;;;9.45;2.55;;;;;;;;;;5032943;28;20055;-68
2021/08/04 12:16:59;;;;;;;6.32;2.15;;;;;;;;;;5034311;28;20022;-68
2021/08/04 12:19:25;;;;;;;5.30;2.00;;;;;;;;;;5033994;28;20099;-68
2021/08/04 12:21:50;;;;;;;8.13;2.70;;;;;;;;;;5033915;28;20036;-69
2021/08/04 12:24:16;;;;;;;7.40;2.40;;;;;;;;;;5033824;28;20025;-68
2021/08/04 12:26:43;;;;;;;9.82;3.20;;;;;;;;;;5034109;28;20109;-69
2021/08/04 12:29:23;;;;;;;15.35;3.63;;;;;;;;;;5033427;28;20026;-68
2021/08/04 12:32:02;;;;;;;5.63;1.90;;;;;;;;;;5033845;28;20071;-69
2021/08/04 12:34:28;;;;;;;14.93;2.60;;;;;;;;;;5033286;28;20025;-68
2021/08/04 12:36:56;;;;;;;8.10;1.98;;;;;;;;;;5033928;28;20026;-69
2021/08/04 12:39:27;;;;;;;7.68;2.22;;;;;;;;;;5033642;28;20018;-68
2021/08/04 12:41:54;;;;;;;5.03;1.85;;;;;;;;;;5033548;28;20537;-70
2021/08/04 12:44:19;;;;;;;11.88;2.65;;;;;;;;;;5032401;28;20382;-68
2021/08/04 12:46:45;;;;;;;4.88;1.77;;;;;;;;;;5033584;28;20021;-69
2021/08/04 12:49:17;;;;;;;7.72;2.15;;;;;;;;;;5015027;28;20021;-69
2021/08/04 12:52:01;;;;;;;6.78;1.92;;;;;;;;;;5015722;28;20056;-68
2021/08/04 12:54:28;;;;;;;7.30;2.28;;;;;;;;;;5013208;28;20018;-69
2021/08/04 12:56:54;;;;;;;12.75;3.00;;;;;;;;;;5018625;28;20394;-69
2021/08/04 12:59:22;;;;;;;10.73;2.45;;;;;;;;;;5032852;28;20022;-67
2021/08/04 13:01:50;;;;;;;4.68;1.48;;;;;;;;;;5032324;28;20025;-68
2021/08/04 13:04:34;;;;;;;4.05;1.92;;;;;;;;;;5031641;28;20037;-68
2021/08/04 13:07:20;;;;;;;8.48;2.33;;;;;;;;;;5025574;28;20037;-68
2021/08/04 13:09:47;;;;;;;13.38;2.85;;;;;;;;;;5030793;28;20026;-67
2021/08/04 13:12:16;;;;;;;7.07;1.90;;;;;;;;;;5014336;28;20018;-69
2021/08/04 13:15:01;;;;;;;5.57;2.35;;;;;;;;;;5031833;28;20021;-68
2021/08/04 13:17:27;;;;;;;8.18;2.53;;;;;;;;;;5031761;28;20164;-67
2021/08/04 13:20:11;;;;;;;6.20;2.63;;;;;;;;;;5032462;28;20548;-67
2021/08/04 13:22:55;;;;;;;13.77;3.15;;;;;;;;;;5029956;28;20033;-67
2021/08/04 13:25:22;;;;;;;8.02;2.22;;;;;;;;;;5031188;28;20104;-67
2021/08/04 13:28:05;;;;;;;11.25;2.97;;;;;;;;;;5031423;28;20079;-67
2021/08/04 13:30:32;;;;;;;24.45;3.97;;;;;;;;;;5030878;28;20155;-68
2021/08/04 13:33:05;;;;;;;8.38;2.55;;;;;;;;;;5032630;28;20009;-67
2021/08/04 13:35:31;;;;;;;7.93;1.95;;;;;;;;;;5032660;28;20071;-67
2021/08/04 13:37:57;;;;;;;15.32;3.40;;;;;;;;;;5032011;28;20017;-67
2021/08/04 13:40:22;;;;;;;9.25;2.70;;;;;;;;;;5031862;28;20444;-68
2021/08/04 13:42:48;;;;;;;8.45;2.00;;;;;;;;;;5031919;28;20037;-68
2021/08/04 13:45:15;;;;;;;5.85;2.05;;;;;;;;;;5032488;28;20124;-67
2021/08/04 13:47:41;;;;;;;9.73;2.35;;;;;;;;;;5032466;28;20092;-67
2021/08/04 13:50:07;;;;;;;7.35;2.55;;;;;;;;;;5031939;28;20109;-68
2021/08/04 13:52:33;;;;;;;5.05;1.75;;;;;;;;;;5032194;28;20025;-68
2021/08/04 13:54:59;;;;;;;6.82;2.00;;;;;;;;;;5031863;28;20029;-68
2021/08/04 13:57:24;;;;;;;4.65;1.83;;;;;;;;;;5032330;28;20032;-68
2021/08/04 13:59:50;;;;;;;7.75;2.40;;;;;;;;;;5032175;28;20026;-68
2021/08/04 14:02:15;;;;;;;7.03;1.80;;;;;;;;;;5031992;28;20033;-67
2021/08/04 14:04:41;;;;;;;5.05;1.88;;;;;;;;;;5032146;28;20049;-68
2021/08/04 14:07:07;;;;;;;2.55;1.70;;;;;;;;;;5032535;28;20060;-67
2021/08/04 14:09:32;;;;;;;10.80;2.72;;;;;;;;;;5031776;28;20021;-67
2021/08/04 14:11:58;;;;;;;5.40;1.98;;;;;;;;;;5032138;28;20009;-68
2021/08/04 14:14:24;;;;;;;9.60;1.90;;;;;;;;;;5032473;28;20022;-67
2021/08/04 14:16:49;;;;;;;4.20;1.80;;;;;;;;;;5031955;28;20092;-66
2021/08/04 14:19:15;;;;;;;7.05;2.13;;;;;;;;;;5031741;28;20104;-67
2021/08/04 14:21:44;;;;;;;4.03;1.63;;;;;;;;;;5032039;28;20036;-67
2021/08/04 14:24:09;;;;;;;;;;;;;;;;;;5031901;28;20049;-67
2021/08/04 14:26:35;;;;;;;5.30;1.77;;;;;;;;;;5032059;28;19952;-68
2021/08/04 14:29:00;;;;;;;10.15;1.95;;;;;;;;;;5031292;28;20495;-67
2021/08/04 14:31:26;;;;;;;14.73;3.63;;;;;;;;;;5030544;28;20021;-67
2021/08/04 14:33:52;;;;;;;7.00;2.10;;;;;;;;;;5031829;28;20386;-66
2021/08/04 14:36:18;;;;;;;8.93;2.22;;;;;;;;;;5032372;28;20013;-67
2021/08/04 14:38:47;;;;;;;9.02;2.10;;;;;;;;;;5035720;28;20060;-67
2021/08/04 14:41:13;;;;;;;12.25;1.83;;;;;;;;;;5019001;28;20033;-67
2021/08/04 14:43:40;;;;;;;5.20;1.50;;;;;;;;;;5036363;28;20032;-67
2021/08/04 14:46:05;;;;;;;5.03;2.25;;;;;;;;;;5036154;28;20021;-67
2021/08/04 14:48:32;;;;;;;5.05;2.15;;;;;;;;;;5036328;28;20022;-67
2021/08/04 14:50:58;;;;;;;6.28;1.48;;;;;;;;;;5036368;28;20108;-67